createdAt,value
2023-03-13T00:00:56.944Z,7.18
2023-03-13T00:01:56.689Z,7.24
2023-03-13T00:02:56.627Z,7.25
2023-03-13T00:03:56.623Z,7.28
2023-03-13T00:04:56.616Z,7.28
2023-03-13T00:05:56.907Z,7.33
2023-03-13T00:06:56.592Z,7.39
2023-03-13T00:07:56.576Z,7.40
2023-03-13T00:08:56.567Z,7.43
2023-03-13T00:09:56.551Z,7.42
2023-03-13T00:10:56.869Z,7.39
2023-03-13T00:11:56.547Z,7.36
2023-03-13T00:12:56.514Z,7.36
2023-03-13T00:13:56.520Z,7.36
2023-03-13T00:14:56.492Z,7.34
2023-03-13T00:15:56.537Z,7.37
2023-03-13T00:16:56.531Z,7.42
2023-03-13T00:17:56.465Z,7.42
2023-03-13T00:18:56.447Z,7.37
2023-03-13T00:19:56.443Z,7.34
2023-03-13T00:20:56.886Z,7.31
2023-03-13T00:21:56.424Z,7.39
2023-03-13T00:22:56.409Z,7.36
2023-03-13T00:23:56.402Z,7.33
2023-03-13T00:24:56.387Z,7.33
2023-03-13T00:25:56.688Z,7.34
2023-03-13T00:26:56.380Z,7.31
2023-03-13T00:27:56.363Z,7.31
2023-03-13T00:28:56.343Z,7.29
2023-03-13T00:29:56.348Z,7.33
2023-03-13T00:30:56.684Z,7.29
2023-03-13T00:31:56.396Z,7.34
2023-03-13T00:32:56.366Z,7.34
2023-03-13T00:33:56.296Z,7.39
2023-03-13T00:34:56.271Z,7.36
2023-03-13T00:35:56.631Z,7.40
2023-03-13T00:36:56.261Z,7.47
2023-03-13T00:37:56.261Z,7.49
2023-03-13T00:38:56.244Z,7.49
2023-03-13T00:39:56.228Z,7.44
2023-03-13T00:40:56.530Z,7.44
2023-03-13T00:41:56.211Z,7.46
2023-03-13T00:42:56.198Z,7.46
2023-03-13T00:43:56.213Z,7.46
2023-03-13T00:44:56.175Z,7.46
2023-03-13T00:45:56.498Z,7.43
2023-03-13T00:46:56.152Z,7.42
2023-03-13T00:47:56.143Z,7.47
2023-03-13T00:48:56.137Z,7.50
2023-03-13T00:49:56.127Z,7.50
2023-03-13T00:50:56.133Z,7.50
2023-03-13T00:51:56.123Z,7.54
2023-03-13T00:52:56.085Z,7.46
2023-03-13T00:53:56.101Z,7.47
2023-03-13T00:54:56.066Z,7.50
2023-03-13T00:55:56.079Z,7.47
2023-03-13T00:56:56.045Z,7.46
2023-03-13T00:57:56.037Z,7.46
2023-03-13T00:58:56.021Z,7.44
2023-03-13T00:59:56.014Z,7.50
2023-03-13T01:00:56.019Z,7.55
2023-03-13T01:01:56.083Z,7.52
2023-03-13T01:02:56.137Z,7.50
2023-03-13T01:03:55.976Z,7.52
2023-03-13T01:04:55.961Z,7.54
2023-03-13T01:05:55.970Z,7.64
2023-03-13T01:06:55.940Z,7.64
2023-03-13T01:07:55.941Z,7.66
2023-03-13T01:08:55.927Z,7.61
2023-03-13T01:09:55.919Z,7.62
2023-03-13T01:10:56.080Z,7.64
2023-03-13T01:11:55.899Z,7.64
2023-03-13T01:12:55.890Z,7.64
2023-03-13T01:13:55.896Z,7.68
2023-03-13T01:14:55.856Z,7.66
2023-03-13T01:15:56.317Z,7.66
2023-03-13T01:16:55.840Z,7.66
2023-03-13T01:17:55.852Z,7.73
2023-03-13T01:18:55.826Z,7.73
2023-03-13T01:19:55.811Z,7.71
2023-03-13T01:20:55.819Z,7.68
2023-03-13T01:21:55.799Z,7.73
2023-03-13T01:22:55.785Z,7.69
2023-03-13T01:23:55.770Z,7.71
2023-03-13T01:24:55.755Z,7.69
2023-03-13T01:25:56.596Z,7.71
2023-03-13T01:26:55.750Z,7.71
2023-03-13T01:27:55.735Z,7.69
2023-03-13T01:28:55.712Z,7.76
2023-03-13T01:29:55.711Z,7.73
2023-03-13T01:30:55.753Z,7.76
2023-03-13T01:31:55.688Z,7.74
2023-03-13T01:32:55.796Z,7.78
2023-03-13T01:33:55.666Z,7.80
2023-03-13T01:34:55.653Z,7.80
2023-03-13T01:35:55.751Z,7.78
2023-03-13T01:36:55.635Z,7.77
2023-03-13T01:37:55.632Z,7.74
2023-03-13T01:38:55.611Z,7.77
2023-03-13T01:39:55.607Z,7.83
2023-03-13T01:40:56.373Z,7.83
2023-03-13T01:41:55.589Z,7.84
2023-03-13T01:42:55.565Z,7.95
2023-03-13T01:43:55.654Z,7.94
2023-03-13T01:44:55.560Z,7.94
2023-03-13T01:45:55.983Z,7.92
2023-03-13T01:46:55.530Z,7.91
2023-03-13T01:47:55.525Z,7.94
2023-03-13T01:48:55.507Z,7.94
2023-03-13T01:49:55.505Z,7.92
2023-03-13T01:50:55.844Z,7.95
2023-03-13T01:51:55.490Z,7.95
2023-03-13T01:52:55.462Z,7.94
2023-03-13T01:53:55.459Z,7.96
2023-03-13T01:54:55.464Z,7.95
2023-03-13T01:55:55.738Z,7.95
2023-03-13T01:56:55.426Z,7.98
2023-03-13T01:57:55.426Z,7.95
2023-03-13T01:58:55.417Z,7.95
2023-03-13T01:59:55.395Z,7.95
2023-03-13T02:00:55.797Z,8.01
2023-03-13T02:01:55.473Z,8.04
2023-03-13T02:02:55.404Z,8.09
2023-03-13T02:03:55.350Z,8.12
2023-03-13T02:04:55.339Z,8.10
2023-03-13T02:05:55.678Z,8.10
2023-03-13T02:06:55.345Z,8.12
2023-03-13T02:07:55.318Z,8.14
2023-03-13T02:08:55.297Z,8.17
2023-03-13T02:09:55.297Z,8.16
2023-03-13T02:10:55.275Z,8.16
2023-03-13T02:11:55.283Z,8.20
2023-03-13T02:12:55.254Z,8.14
2023-03-13T02:13:55.253Z,8.19
2023-03-13T02:14:55.244Z,8.21
2023-03-13T02:15:55.251Z,8.17
2023-03-13T02:16:55.220Z,8.17
2023-03-13T02:17:55.215Z,8.16
2023-03-13T02:18:55.189Z,8.17
2023-03-13T02:19:55.194Z,8.19
2023-03-13T02:20:55.183Z,8.20
2023-03-13T02:21:55.196Z,8.20
2023-03-13T02:22:55.146Z,8.21
2023-03-13T02:23:55.144Z,8.23
2023-03-13T02:24:55.129Z,8.21
2023-03-13T02:25:55.136Z,8.23
2023-03-13T02:26:55.119Z,8.26
2023-03-13T02:27:55.107Z,8.20
2023-03-13T02:28:55.096Z,8.19
2023-03-13T02:29:55.080Z,8.19
2023-03-13T02:30:55.074Z,8.20
2023-03-13T02:31:55.089Z,8.23
2023-03-13T02:32:55.078Z,8.21
2023-03-13T02:33:55.051Z,8.24
2023-03-13T02:34:55.021Z,8.24
2023-03-13T02:35:55.133Z,8.23
2023-03-13T02:36:55.014Z,8.24
2023-03-13T02:37:55.001Z,8.24
2023-03-13T02:38:55.000Z,8.21
2023-03-13T02:39:54.994Z,8.23
2023-03-13T02:40:54.964Z,8.20
2023-03-13T02:41:54.957Z,8.20
2023-03-13T02:42:54.964Z,8.23
2023-03-13T02:43:54.973Z,8.19
2023-03-13T02:44:54.950Z,8.17
2023-03-13T02:45:54.919Z,8.19
2023-03-13T02:46:54.949Z,8.17
2023-03-13T02:47:54.903Z,8.16
2023-03-13T02:48:54.876Z,8.17
2023-03-13T02:49:54.879Z,8.16
2023-03-13T02:50:54.880Z,8.14
2023-03-13T02:51:54.872Z,8.20
2023-03-13T02:52:54.847Z,8.17
2023-03-13T02:53:54.830Z,8.19
2023-03-13T02:54:54.820Z,8.16
2023-03-13T02:55:54.816Z,8.19
2023-03-13T02:56:54.829Z,8.20
2023-03-13T02:57:54.793Z,8.20
2023-03-13T02:58:54.786Z,8.20
2023-03-13T02:59:54.792Z,8.23
2023-03-13T03:00:54.813Z,8.20
2023-03-13T03:01:55.133Z,8.23
2023-03-13T03:02:54.742Z,8.20
2023-03-13T03:03:54.768Z,8.21
2023-03-13T03:04:54.718Z,8.20
2023-03-13T03:05:54.717Z,8.20
2023-03-13T03:06:54.718Z,8.20
2023-03-13T03:07:54.695Z,8.21
2023-03-13T03:08:54.688Z,8.20
2023-03-13T03:09:54.669Z,8.20
2023-03-13T03:10:54.665Z,8.21
2023-03-13T03:11:55.044Z,8.23
2023-03-13T03:12:54.643Z,8.24
2023-03-13T03:13:54.636Z,8.21
2023-03-13T03:14:54.606Z,8.21
2023-03-13T03:15:54.615Z,8.23
2023-03-13T03:16:55.130Z,8.21
2023-03-13T03:17:54.600Z,8.21
2023-03-13T03:18:54.581Z,8.20
2023-03-13T03:19:54.584Z,8.19
2023-03-13T03:20:54.552Z,8.17
2023-03-13T03:21:54.553Z,8.14
2023-03-13T03:22:54.521Z,8.16
2023-03-13T03:23:54.526Z,8.10
2023-03-13T03:24:54.494Z,8.12
2023-03-13T03:25:54.498Z,8.12
2023-03-13T03:26:54.812Z,8.09
2023-03-13T03:27:54.478Z,8.10
2023-03-13T03:28:54.467Z,8.09
2023-03-13T03:29:54.464Z,8.12
2023-03-13T03:30:54.436Z,8.12
2023-03-13T03:31:54.788Z,8.13
2023-03-13T03:32:54.500Z,8.20
2023-03-13T03:33:54.414Z,8.20
2023-03-13T03:34:54.407Z,8.17
2023-03-13T03:35:54.436Z,8.20
2023-03-13T03:36:54.513Z,8.23
2023-03-13T03:37:54.385Z,8.23
2023-03-13T03:38:54.358Z,8.21
2023-03-13T03:39:54.344Z,8.23
2023-03-13T03:40:54.337Z,8.23
2023-03-13T03:41:54.357Z,8.26
2023-03-13T03:42:54.313Z,8.21
2023-03-13T03:43:54.301Z,8.24
2023-03-13T03:44:54.298Z,8.24
2023-03-13T03:45:54.332Z,8.26
2023-03-13T03:46:54.356Z,8.28
2023-03-13T03:47:54.263Z,8.20
2023-03-13T03:48:54.256Z,8.23
2023-03-13T03:49:54.239Z,8.23
2023-03-13T03:50:54.249Z,8.23
2023-03-13T03:51:54.306Z,8.23
2023-03-13T03:52:54.211Z,8.24
2023-03-13T03:53:54.204Z,8.24
2023-03-13T03:54:54.199Z,8.28
2023-03-13T03:55:54.187Z,8.32
2023-03-13T03:56:54.192Z,8.34
2023-03-13T03:57:54.160Z,8.32
2023-03-13T03:58:54.160Z,8.32
2023-03-13T03:59:54.137Z,8.34
2023-03-13T04:00:54.123Z,8.39
2023-03-13T04:01:54.172Z,8.38
2023-03-13T04:02:54.143Z,8.42
2023-03-13T04:03:54.092Z,8.47
2023-03-13T04:04:54.088Z,8.50
2023-03-13T04:05:54.081Z,8.53
2023-03-13T04:06:54.115Z,8.57
2023-03-13T04:07:54.054Z,8.62
2023-03-13T04:08:54.047Z,8.65
2023-03-13T04:09:54.033Z,8.67
2023-03-13T04:10:54.032Z,8.75
2023-03-13T04:11:54.236Z,8.74
2023-03-13T04:12:54.026Z,8.74
2023-03-13T04:13:53.993Z,8.74
2023-03-13T04:14:53.989Z,8.75
2023-03-13T04:15:53.965Z,8.74
2023-03-13T04:16:54.416Z,8.77
2023-03-13T04:17:53.951Z,8.77
2023-03-13T04:18:53.940Z,8.77
2023-03-13T04:19:53.925Z,8.80
2023-03-13T04:20:53.923Z,8.77
2023-03-13T04:21:54.274Z,8.77
2023-03-13T04:22:53.904Z,8.77
2023-03-13T04:23:53.886Z,8.81
2023-03-13T04:24:53.883Z,8.80
2023-03-13T04:25:53.867Z,8.80
2023-03-13T04:26:54.257Z,8.77
2023-03-13T04:27:53.856Z,8.77
2023-03-13T04:28:53.855Z,8.81
2023-03-13T04:29:53.834Z,8.78
2023-03-13T04:30:53.833Z,8.77
2023-03-13T04:31:54.117Z,8.74
2023-03-13T04:32:53.844Z,8.74
2023-03-13T04:33:53.783Z,8.80
2023-03-13T04:34:53.836Z,8.72
2023-03-13T04:35:53.808Z,8.74
2023-03-13T04:36:54.451Z,8.72
2023-03-13T04:37:53.762Z,8.74
2023-03-13T04:38:54.097Z,8.67
2023-03-13T04:39:53.722Z,8.70
2023-03-13T04:40:53.717Z,8.72
2023-03-13T04:41:54.031Z,8.70
2023-03-13T04:42:53.711Z,8.68
2023-03-13T04:43:53.681Z,8.67
2023-03-13T04:44:53.672Z,8.63
2023-03-13T04:45:53.706Z,8.63
2023-03-13T04:46:53.828Z,8.68
2023-03-13T04:47:53.641Z,8.62
2023-03-13T04:48:53.639Z,8.63
2023-03-13T04:49:53.618Z,8.62
2023-03-13T04:50:53.608Z,8.59
2023-03-13T04:51:53.729Z,8.60
2023-03-13T04:52:53.591Z,8.56
2023-03-13T04:53:53.580Z,8.60
2023-03-13T04:54:53.574Z,8.57
2023-03-13T04:55:53.560Z,8.59
2023-03-13T04:56:53.550Z,8.60
2023-03-13T04:57:53.543Z,8.57
2023-03-13T04:58:53.523Z,8.56
2023-03-13T04:59:53.509Z,8.50
2023-03-13T05:00:53.511Z,8.49
2023-03-13T05:01:53.528Z,8.47
2023-03-13T05:02:53.501Z,8.44
2023-03-13T05:03:53.481Z,8.46
2023-03-13T05:04:53.498Z,8.46
2023-03-13T05:05:53.448Z,8.46
2023-03-13T05:06:53.441Z,8.44
2023-03-13T05:07:53.437Z,8.47
2023-03-13T05:08:53.429Z,8.46
2023-03-13T05:09:53.411Z,8.44
2023-03-13T05:10:53.402Z,8.46
2023-03-13T05:11:53.397Z,8.44
2023-03-13T05:12:53.407Z,8.44
2023-03-13T05:13:53.385Z,8.49
2023-03-13T05:14:53.371Z,8.39
2023-03-13T05:15:53.441Z,8.42
2023-03-13T05:16:53.346Z,8.41
2023-03-13T05:17:54.682Z,8.41
2023-03-13T05:18:53.334Z,8.39
2023-03-13T05:19:53.304Z,8.37
2023-03-13T05:20:53.247Z,8.39
2023-03-13T05:21:53.247Z,8.38
2023-03-13T05:22:53.573Z,8.47
2023-03-13T05:23:53.212Z,8.47
2023-03-13T05:24:53.200Z,8.46
2023-03-13T05:25:53.182Z,8.44
2023-03-13T05:26:53.175Z,8.46
2023-03-13T05:27:53.501Z,8.47
2023-03-13T05:28:53.211Z,8.50
2023-03-13T05:29:53.140Z,8.50
2023-03-13T05:30:53.167Z,8.55
2023-03-13T05:31:53.124Z,8.53
2023-03-13T05:32:53.587Z,8.50
2023-03-13T05:33:53.108Z,8.53
2023-03-13T05:34:53.102Z,8.53
2023-03-13T05:35:53.146Z,8.57
2023-03-13T05:36:53.080Z,8.56
2023-03-13T05:37:53.293Z,8.63
2023-03-13T05:38:53.051Z,8.60
2023-03-13T05:39:53.047Z,8.65
2023-03-13T05:40:53.041Z,8.67
2023-03-13T05:41:53.015Z,8.72
2023-03-13T05:42:53.195Z,8.74
2023-03-13T05:43:52.999Z,8.75
2023-03-13T05:44:53.005Z,8.75
2023-03-13T05:45:52.979Z,8.75
2023-03-13T05:46:53.058Z,8.74
2023-03-13T05:47:53.144Z,8.78
2023-03-13T05:48:52.959Z,8.75
2023-03-13T05:49:52.953Z,8.75
2023-03-13T05:50:52.933Z,8.77
2023-03-13T05:51:52.919Z,8.80
2023-03-13T05:52:52.939Z,8.77
2023-03-13T05:53:52.895Z,8.78
2023-03-13T05:54:52.897Z,8.83
2023-03-13T05:55:52.884Z,8.78
2023-03-13T05:56:52.863Z,8.86
2023-03-13T05:57:53.580Z,8.92
2023-03-13T05:58:52.836Z,8.86
2023-03-13T05:59:52.836Z,8.88
2023-03-13T06:00:52.827Z,8.92
2023-03-13T06:01:52.820Z,8.90
2023-03-13T06:02:53.102Z,8.90
2023-03-13T06:03:52.877Z,8.89
2023-03-13T06:04:52.995Z,8.90
2023-03-13T06:05:52.769Z,8.90
2023-03-13T06:06:52.764Z,8.93
2023-03-13T06:07:53.126Z,8.90
2023-03-13T06:08:52.728Z,8.95
2023-03-13T06:09:52.722Z,8.96
2023-03-13T06:10:52.733Z,8.90
2023-03-13T06:11:52.699Z,8.95
2023-03-13T06:12:52.765Z,8.95
2023-03-13T06:13:52.695Z,8.92
2023-03-13T06:14:52.690Z,8.93
2023-03-13T06:15:52.695Z,8.93
2023-03-13T06:16:52.650Z,8.92
2023-03-13T06:17:52.665Z,8.92
2023-03-13T06:18:52.682Z,8.93
2023-03-13T06:19:52.626Z,8.93
2023-03-13T06:20:52.612Z,8.93
2023-03-13T06:21:52.598Z,8.93
2023-03-13T06:22:52.601Z,8.92
2023-03-13T06:23:52.570Z,8.95
2023-03-13T06:24:52.559Z,8.96
2023-03-13T06:25:52.546Z,8.95
2023-03-13T06:26:52.561Z,8.95
2023-03-13T06:27:52.873Z,8.93
2023-03-13T06:28:52.545Z,8.92
2023-03-13T06:29:52.516Z,8.96
2023-03-13T06:30:52.506Z,8.96
2023-03-13T06:31:52.587Z,8.96
2023-03-13T06:32:53.014Z,8.96
2023-03-13T06:33:52.474Z,8.95
2023-03-13T06:34:52.453Z,8.99
2023-03-13T06:35:56.748Z,9.01
2023-03-13T06:36:52.436Z,8.99
2023-03-13T06:37:52.957Z,8.98
2023-03-13T06:38:52.413Z,9.01
2023-03-13T06:39:52.404Z,9.04
2023-03-13T06:40:52.436Z,9.04
2023-03-13T06:41:52.384Z,8.99
2023-03-13T06:42:52.398Z,9.03
2023-03-13T06:43:52.366Z,8.99
2023-03-13T06:44:52.354Z,8.99
2023-03-13T06:45:52.344Z,9.06
2023-03-13T06:46:52.401Z,9.08
2023-03-13T06:47:52.703Z,8.99
2023-03-13T06:48:52.335Z,9.08
2023-03-13T06:49:52.320Z,9.04
2023-03-13T06:50:52.287Z,9.09
2023-03-13T06:51:52.290Z,9.11
2023-03-13T06:52:52.294Z,9.11
2023-03-13T06:53:52.309Z,9.12
2023-03-13T06:54:52.253Z,9.12
2023-03-13T06:55:52.303Z,9.12
2023-03-13T06:56:52.280Z,9.15
2023-03-13T06:57:52.238Z,9.18
2023-03-13T06:58:52.217Z,9.19
2023-03-13T06:59:52.204Z,9.19
2023-03-13T07:00:52.268Z,9.22
2023-03-13T07:01:52.173Z,9.22
2023-03-13T07:02:52.396Z,9.23
2023-03-13T07:03:52.250Z,9.22
2023-03-13T07:04:52.260Z,9.22
2023-03-13T07:05:52.173Z,9.23
2023-03-13T07:06:52.138Z,9.23
2023-03-13T07:07:52.467Z,9.24
2023-03-13T07:08:52.122Z,9.29
2023-03-13T07:09:52.135Z,9.32
2023-03-13T07:10:52.095Z,9.34
2023-03-13T07:11:52.085Z,9.30
2023-03-13T07:12:52.090Z,9.36
2023-03-13T07:13:52.086Z,9.34
2023-03-13T07:14:52.060Z,9.37
2023-03-13T07:15:52.133Z,9.40
2023-03-13T07:16:52.168Z,9.40
2023-03-13T07:17:52.565Z,9.45
2023-03-13T07:18:52.025Z,9.40
2023-03-13T07:19:52.030Z,9.37
2023-03-13T07:20:51.984Z,9.42
2023-03-13T07:21:51.977Z,9.42
2023-03-13T07:22:52.032Z,9.45
2023-03-13T07:23:51.950Z,9.48
2023-03-13T07:24:52.039Z,9.48
2023-03-13T07:25:51.999Z,9.54
2023-03-13T07:27:04.924Z,9.54
2023-03-13T07:27:52.029Z,9.60
2023-03-13T07:28:51.900Z,9.59
2023-03-13T07:29:51.898Z,9.67
2023-03-13T07:30:51.900Z,9.65
2023-03-13T07:31:51.986Z,9.67
2023-03-13T07:32:52.034Z,9.66
2023-03-13T07:33:51.852Z,9.62
2023-03-13T07:34:51.841Z,9.65
2023-03-13T07:35:51.841Z,9.66
2023-03-13T07:36:51.830Z,9.69
2023-03-13T07:37:51.993Z,9.69
2023-03-13T07:38:51.833Z,9.69
2023-03-13T07:39:51.808Z,9.67
2023-03-13T07:40:51.774Z,9.67
2023-03-13T07:41:51.835Z,9.73
2023-03-13T07:42:51.790Z,9.70
2023-03-13T07:43:51.867Z,9.72
2023-03-13T07:44:51.843Z,9.75
2023-03-13T07:45:51.792Z,9.78
2023-03-13T07:46:51.720Z,9.80
2023-03-13T07:47:51.704Z,9.80
2023-03-13T07:48:51.730Z,9.83
2023-03-13T07:49:51.869Z,9.78
2023-03-13T07:50:51.677Z,9.81
2023-03-13T07:51:51.746Z,9.81
2023-03-13T07:52:51.759Z,9.81
2023-03-13T07:53:51.689Z,9.83
2023-03-13T07:54:51.675Z,9.81
2023-03-13T07:55:51.621Z,9.83
2023-03-13T07:56:51.637Z,9.85
2023-03-13T07:57:51.621Z,9.84
2023-03-13T07:58:51.771Z,9.93
2023-03-13T07:59:51.622Z,9.94
2023-03-13T08:00:51.570Z,9.88
2023-03-13T08:01:51.622Z,9.90
2023-03-13T08:02:51.576Z,9.96
2023-03-13T08:03:52.027Z,9.98
2023-03-13T08:04:51.564Z,9.90
2023-03-13T08:05:51.525Z,9.93
2023-03-13T08:06:51.508Z,9.93
2023-03-13T08:07:51.507Z,9.96
2023-03-13T08:08:51.848Z,9.91
2023-03-13T08:09:51.555Z,9.94
2023-03-13T08:10:51.479Z,9.94
2023-03-13T08:11:51.470Z,9.99
2023-03-13T08:12:51.482Z,10.01
2023-03-13T08:13:51.795Z,9.99
2023-03-13T08:14:51.503Z,10.01
2023-03-13T08:15:51.418Z,10.01
2023-03-13T08:16:51.461Z,10.02
2023-03-13T08:17:51.404Z,10.03
2023-03-13T08:18:51.814Z,10.08
2023-03-13T08:19:51.413Z,10.08
2023-03-13T08:20:51.361Z,10.08
2023-03-13T08:21:51.386Z,10.08
2023-03-13T08:22:51.363Z,10.10
2023-03-13T08:23:51.735Z,10.14
2023-03-13T08:24:51.347Z,10.16
2023-03-13T08:25:51.313Z,10.20
2023-03-13T08:26:51.308Z,10.20
2023-03-13T08:27:51.315Z,10.23
2023-03-13T08:28:51.324Z,10.21
2023-03-13T08:29:51.277Z,10.21
2023-03-13T08:30:51.367Z,10.24
2023-03-13T08:31:51.335Z,10.23
2023-03-13T08:32:51.330Z,10.26
2023-03-13T08:33:51.274Z,10.23
2023-03-13T08:34:51.228Z,10.24
2023-03-13T08:35:51.321Z,10.26
2023-03-13T08:36:51.229Z,10.27
2023-03-13T08:37:51.197Z,10.21
2023-03-13T08:38:51.373Z,10.23
2023-03-13T08:39:51.184Z,10.24
2023-03-13T08:40:51.181Z,10.26
2023-03-13T08:41:51.186Z,10.26
2023-03-13T08:42:51.149Z,10.26
2023-03-13T08:43:51.427Z,10.30
2023-03-13T08:44:51.137Z,10.30
2023-03-13T08:45:51.144Z,10.28
2023-03-13T08:46:51.198Z,10.28
2023-03-13T08:47:51.132Z,10.31
2023-03-13T08:48:51.477Z,10.36
2023-03-13T08:49:51.089Z,10.39
2023-03-13T08:50:51.086Z,10.36
2023-03-13T08:51:51.075Z,10.42
2023-03-13T08:52:51.059Z,10.45
2023-03-13T08:53:51.315Z,10.45
2023-03-13T08:54:51.072Z,10.49
2023-03-13T08:55:51.025Z,10.54
2023-03-13T08:56:51.040Z,10.58
2023-03-13T08:57:51.019Z,10.60
2023-03-13T08:58:51.426Z,10.61
2023-03-13T08:59:51.004Z,10.55
2023-03-13T09:00:50.981Z,10.64
2023-03-13T09:01:51.007Z,10.62
2023-03-13T09:02:51.012Z,10.61
2023-03-13T09:03:51.360Z,10.64
2023-03-13T09:04:50.978Z,10.65
2023-03-13T09:05:56.368Z,10.67
2023-03-13T09:06:50.936Z,10.72
2023-03-13T09:07:50.914Z,10.75
2023-03-13T09:08:51.222Z,10.76
2023-03-13T09:09:50.903Z,10.82
2023-03-13T09:10:50.900Z,10.91
2023-03-13T09:11:50.897Z,10.97
2023-03-13T09:12:50.869Z,11.00
2023-03-13T09:13:51.225Z,11.03
2023-03-13T09:14:50.869Z,11.05
2023-03-13T09:15:50.906Z,11.12
2023-03-13T09:16:50.837Z,11.15
2023-03-13T09:17:50.858Z,11.18
2023-03-13T09:18:51.148Z,11.19
2023-03-13T09:20:00.208Z,11.25
2023-03-13T09:20:50.801Z,11.23
2023-03-13T09:21:50.796Z,11.28
2023-03-13T09:22:50.794Z,11.30
2023-03-13T09:23:50.793Z,11.33
2023-03-13T09:24:50.769Z,11.34
2023-03-13T09:25:50.760Z,11.33
2023-03-13T09:27:00.749Z,11.33
2023-03-13T09:27:50.794Z,11.43
2023-03-13T09:28:51.160Z,11.43
2023-03-13T09:29:50.738Z,11.52
2023-03-13T09:30:50.710Z,11.64
2023-03-13T09:31:50.726Z,11.71
2023-03-13T09:32:50.853Z,11.80
2023-03-13T09:33:51.053Z,11.96
2023-03-13T09:34:50.669Z,11.99
2023-03-13T09:35:50.764Z,12.10
2023-03-13T09:36:50.658Z,12.26
2023-03-13T09:37:50.703Z,12.32
2023-03-13T09:38:50.791Z,12.50
2023-03-13T09:39:50.670Z,12.63
2023-03-13T09:41:05.255Z,12.62
2023-03-13T09:41:50.623Z,12.58
2023-03-13T09:42:50.670Z,12.59
2023-03-13T09:43:50.623Z,12.50
2023-03-13T09:44:50.583Z,12.46
2023-03-13T09:45:50.589Z,12.43
2023-03-13T09:46:50.654Z,12.40
2023-03-13T09:47:50.556Z,12.41
2023-03-13T09:48:51.113Z,12.44
2023-03-13T09:49:50.536Z,12.47
2023-03-13T09:50:50.542Z,12.41
2023-03-13T09:51:50.550Z,12.50
2023-03-13T09:52:50.501Z,12.53
2023-03-13T09:53:50.906Z,12.59
2023-03-13T09:54:50.538Z,12.61
2023-03-13T09:55:50.495Z,12.58
2023-03-13T09:56:50.476Z,12.62
2023-03-13T09:57:50.479Z,12.65
2023-03-13T09:58:50.755Z,12.59
2023-03-13T09:59:50.436Z,12.59
2023-03-13T10:00:50.439Z,12.54
2023-03-13T10:01:50.457Z,12.54
2023-03-13T10:02:50.441Z,12.58
2023-03-13T10:03:50.642Z,12.53
2023-03-13T10:04:50.433Z,12.55
2023-03-13T10:05:50.399Z,12.58
2023-03-13T10:06:50.360Z,12.59
2023-03-13T10:07:50.350Z,12.65
2023-03-13T10:08:50.658Z,12.61
2023-03-13T10:09:50.413Z,12.61
2023-03-13T10:10:50.321Z,12.62
2023-03-13T10:11:50.310Z,12.66
2023-03-13T10:12:50.317Z,12.68
2023-03-13T10:13:50.625Z,12.68
2023-03-13T10:14:50.324Z,12.65
2023-03-13T10:15:50.303Z,12.66
2023-03-13T10:16:50.308Z,12.63
2023-03-13T10:17:50.237Z,12.54
2023-03-13T10:18:50.259Z,12.61
2023-03-13T10:19:50.213Z,12.55
2023-03-13T10:20:50.209Z,12.63
2023-03-13T10:21:50.202Z,12.66
2023-03-13T10:22:50.169Z,12.69
2023-03-13T10:23:50.171Z,12.72
2023-03-13T10:24:50.176Z,12.73
2023-03-13T10:25:50.219Z,12.72
2023-03-13T10:26:50.145Z,12.73
2023-03-13T10:27:51.084Z,12.77
2023-03-13T10:28:50.150Z,12.80
2023-03-13T10:29:50.114Z,12.80
2023-03-13T10:30:50.248Z,12.80
2023-03-13T10:31:50.162Z,12.84
2023-03-13T10:32:50.134Z,12.86
2023-03-13T10:33:50.063Z,12.86
2023-03-13T10:34:50.050Z,12.87
2023-03-13T10:35:50.140Z,12.93
2023-03-13T10:36:50.040Z,12.90
2023-03-13T10:37:50.018Z,12.91
2023-03-13T10:38:50.003Z,12.95
2023-03-13T10:39:50.016Z,12.95
2023-03-13T10:40:49.992Z,12.96
2023-03-13T10:41:49.970Z,12.98
2023-03-13T10:42:49.961Z,13.11
2023-03-13T10:43:49.954Z,13.20
2023-03-13T10:44:50.036Z,13.43
2023-03-13T10:45:49.947Z,13.46
2023-03-13T10:46:49.983Z,13.54
2023-03-13T10:47:49.913Z,13.58
2023-03-13T10:48:49.889Z,13.71
2023-03-13T10:49:49.930Z,13.61
2023-03-13T10:50:49.885Z,13.64
2023-03-13T10:51:49.887Z,13.64
2023-03-13T10:52:49.898Z,13.64
2023-03-13T10:53:49.842Z,13.58
2023-03-13T10:54:49.892Z,13.51
2023-03-13T10:55:49.821Z,13.53
2023-03-13T10:56:49.822Z,13.45
2023-03-13T10:57:49.825Z,13.43
2023-03-13T10:58:49.796Z,13.42
2023-03-13T10:59:49.784Z,13.42
2023-03-13T11:00:49.794Z,13.40
2023-03-13T11:01:49.767Z,13.40
2023-03-13T11:02:49.933Z,13.46
2023-03-13T11:03:49.848Z,13.45
2023-03-13T11:04:49.732Z,13.46
2023-03-13T11:05:49.718Z,13.40
2023-03-13T11:06:49.756Z,13.39
2023-03-13T11:07:49.691Z,13.38
2023-03-13T11:08:49.737Z,13.38
2023-03-13T11:09:49.712Z,13.30
2023-03-13T11:10:49.715Z,13.32
2023-03-13T11:11:49.702Z,13.32
2023-03-13T11:12:49.661Z,13.30
2023-03-13T11:13:49.642Z,13.35
2023-03-13T11:14:49.787Z,13.40
2023-03-13T11:15:49.659Z,13.47
2023-03-13T11:16:49.595Z,13.55
2023-03-13T11:17:49.802Z,13.57
2023-03-13T11:18:49.573Z,13.61
2023-03-13T11:19:51.066Z,13.61
2023-03-13T11:20:49.575Z,13.68
2023-03-13T11:21:49.596Z,13.73
2023-03-13T11:22:49.606Z,13.83
2023-03-13T11:23:49.649Z,13.76
2023-03-13T11:24:50.431Z,13.73
2023-03-13T11:25:49.543Z,13.75
2023-03-13T11:26:58.501Z,13.68
2023-03-13T11:27:49.502Z,13.76
2023-03-13T11:28:49.516Z,13.75
2023-03-13T11:29:50.012Z,13.80
2023-03-13T11:30:49.470Z,13.86
2023-03-13T11:31:49.531Z,13.96
2023-03-13T11:32:49.572Z,14.04
2023-03-13T11:33:49.452Z,14.08
2023-03-13T11:34:49.766Z,14.04
2023-03-13T11:35:49.543Z,14.05
2023-03-13T11:36:49.428Z,13.98
2023-03-13T11:37:49.387Z,14.01
2023-03-13T11:38:49.383Z,14.00
2023-03-13T11:39:49.683Z,14.04
2023-03-13T11:40:49.353Z,14.19
2023-03-13T11:41:49.458Z,14.21
2023-03-13T11:42:49.336Z,14.21
2023-03-13T11:43:49.335Z,14.19
2023-03-13T11:44:49.656Z,14.26
2023-03-13T11:45:49.441Z,14.38
2023-03-13T11:46:49.357Z,14.40
2023-03-13T11:47:49.294Z,14.38
2023-03-13T11:48:49.307Z,14.36
2023-03-13T11:49:49.749Z,14.46
2023-03-13T11:50:49.250Z,14.46
2023-03-13T11:51:49.228Z,14.45
2023-03-13T11:52:49.310Z,14.44
2023-03-13T11:53:49.287Z,14.48
2023-03-13T11:54:49.580Z,14.46
2023-03-13T11:55:49.203Z,14.49
2023-03-13T11:56:49.166Z,14.56
2023-03-13T11:57:49.169Z,14.69
2023-03-13T11:58:49.131Z,14.56
2023-03-13T11:59:49.154Z,14.55
2023-03-13T12:00:49.154Z,14.58
2023-03-13T12:01:49.204Z,14.69
2023-03-13T12:02:49.132Z,14.82
2023-03-13T12:03:49.094Z,14.82
2023-03-13T12:04:49.428Z,14.85
2023-03-13T12:05:49.105Z,14.85
2023-03-13T12:06:49.088Z,14.99
2023-03-13T12:07:49.056Z,15.04
2023-03-13T12:08:49.049Z,15.07
2023-03-13T12:09:49.417Z,15.22
2023-03-13T12:10:49.012Z,15.20
2023-03-13T12:11:48.966Z,15.30
2023-03-13T12:12:48.968Z,15.33
2023-03-13T12:13:48.969Z,15.32
2023-03-13T12:14:49.330Z,15.40
2023-03-13T12:15:48.926Z,15.29
2023-03-13T12:16:48.992Z,15.27
2023-03-13T12:17:48.928Z,15.25
2023-03-13T12:18:48.948Z,15.22
2023-03-13T12:19:49.196Z,15.15
2023-03-13T12:20:48.905Z,15.14
2023-03-13T12:21:48.951Z,14.99
2023-03-13T12:22:48.895Z,14.89
2023-03-13T12:23:48.868Z,14.89
2023-03-13T12:24:49.149Z,14.87
2023-03-13T12:25:48.914Z,14.89
2023-03-13T12:26:48.832Z,14.95
2023-03-13T12:27:48.876Z,15.03
2023-03-13T12:28:48.774Z,15.08
2023-03-13T12:29:49.289Z,15.14
2023-03-13T12:30:48.951Z,15.26
2023-03-13T12:31:48.725Z,15.15
2023-03-13T12:32:48.777Z,14.99
2023-03-13T12:33:48.709Z,14.89
2023-03-13T12:34:49.149Z,14.90
2023-03-13T12:35:48.754Z,14.95
2023-03-13T12:36:48.670Z,14.95
2023-03-13T12:37:48.796Z,14.74
2023-03-13T12:38:48.697Z,14.63
2023-03-13T12:39:48.950Z,14.55
2023-03-13T12:40:48.643Z,14.59
2023-03-13T12:41:48.604Z,14.59
2023-03-13T12:42:48.592Z,14.70
2023-03-13T12:44:04.230Z,14.82
2023-03-13T12:44:48.769Z,14.83
2023-03-13T12:45:48.668Z,14.79
2023-03-13T12:46:48.753Z,14.83
2023-03-13T12:47:48.558Z,14.77
2023-03-13T12:48:48.551Z,14.70
2023-03-13T12:49:48.665Z,14.73
2023-03-13T12:50:48.560Z,14.79
2023-03-13T12:51:48.563Z,14.77
2023-03-13T12:52:48.514Z,14.73
2023-03-13T12:53:48.511Z,14.73
2023-03-13T12:54:48.813Z,14.70
2023-03-13T12:55:48.464Z,14.58
2023-03-13T12:56:48.427Z,14.59
2023-03-13T12:57:48.522Z,14.59
2023-03-13T12:58:48.405Z,14.55
2023-03-13T12:59:48.685Z,14.51
2023-03-13T13:00:48.405Z,14.55
2023-03-13T13:01:48.420Z,14.56
2023-03-13T13:02:48.352Z,14.64
2023-03-13T13:03:48.370Z,14.63
2023-03-13T13:04:48.454Z,14.63
2023-03-13T13:05:50.585Z,14.61
2023-03-13T13:06:48.591Z,14.52
2023-03-13T13:07:48.278Z,14.52
2023-03-13T13:08:48.310Z,14.51